createdAt,value
2023-11-01T00:01:11.976Z,59.00
2023-11-01T00:06:14.148Z,58.42
2023-11-01T00:11:16.455Z,57.53
2023-11-01T00:16:18.760Z,57.46
2023-11-01T00:21:20.900Z,57.73
2023-11-01T00:26:23.046Z,57.97
2023-11-01T00:31:25.199Z,57.98
2023-11-01T00:36:27.333Z,58.33
2023-11-01T00:41:29.549Z,58.56
2023-11-01T00:46:31.738Z,58.48
2023-11-01T00:51:34.101Z,58.00
2023-11-01T00:56:36.334Z,57.54
2023-11-01T01:01:41.405Z,56.98
2023-11-01T01:06:43.570Z,56.87
2023-11-01T01:11:48.559Z,56.24
2023-11-01T01:16:51.524Z,56.42
2023-11-01T01:21:53.793Z,56.17
2023-11-01T01:26:56.265Z,56.40
2023-11-01T01:31:58.436Z,57.15
2023-11-01T01:37:00.650Z,57.42
2023-11-01T01:42:02.856Z,57.34
2023-11-01T01:47:06.240Z,57.54
2023-11-01T01:52:08.426Z,57.88
2023-11-01T01:57:11.897Z,58.37
2023-11-01T02:02:14.659Z,58.89
2023-11-01T02:07:16.981Z,58.52
2023-11-01T02:12:19.704Z,58.49
2023-11-01T02:17:21.839Z,58.96
2023-11-01T02:22:24.007Z,59.15
2023-11-01T02:27:26.189Z,59.39
2023-11-01T02:32:29.888Z,58.93
2023-11-01T02:37:32.391Z,58.97
2023-11-01T02:42:34.527Z,59.30
2023-11-01T02:47:40.457Z,59.23
2023-11-01T02:52:42.658Z,59.30
2023-11-01T02:57:46.335Z,58.77
2023-11-01T03:02:55.413Z,58.93
2023-11-01T03:07:57.911Z,59.28
2023-11-01T03:13:00.138Z,58.93
2023-11-01T03:18:02.370Z,58.52
2023-11-01T03:23:05.382Z,58.96
2023-11-01T03:28:07.546Z,59.82
2023-11-01T03:33:09.839Z,61.09
2023-11-01T03:38:12.078Z,60.89
2023-11-01T03:43:14.382Z,60.51
2023-11-01T03:48:16.602Z,60.21
2023-11-01T03:53:18.810Z,61.24
2023-11-01T03:58:21.118Z,61.60
2023-11-01T04:03:23.244Z,61.61
2023-11-01T04:08:25.491Z,60.93
2023-11-01T04:13:27.734Z,60.62
2023-11-01T04:18:29.891Z,60.36
2023-11-01T04:23:32.036Z,60.14
2023-11-01T04:28:34.480Z,59.56
2023-11-01T04:33:37.232Z,59.40
2023-11-01T04:38:39.879Z,59.03
2023-11-01T04:43:42.013Z,58.69
2023-11-01T04:48:44.111Z,57.78
2023-11-01T04:53:47.438Z,57.41
2023-11-01T04:58:49.868Z,57.71
2023-11-01T05:03:52.110Z,57.88
2023-11-01T05:08:55.243Z,57.56
2023-11-01T05:13:57.479Z,57.19
2023-11-01T05:18:59.625Z,57.27
2023-11-01T05:24:01.751Z,57.44
2023-11-01T05:29:05.763Z,57.51
2023-11-01T05:34:07.985Z,57.53
2023-11-01T05:39:10.107Z,57.45
2023-11-01T05:44:12.264Z,57.73
2023-11-01T05:49:15.900Z,60.05
2023-11-01T05:54:18.064Z,60.76
2023-11-01T05:59:20.748Z,59.92
2023-11-01T06:04:23.364Z,59.27
2023-11-01T06:09:26.243Z,59.31
2023-11-01T06:14:28.431Z,60.08
2023-11-01T06:19:33.275Z,58.79
2023-11-01T06:24:35.368Z,58.10
2023-11-01T06:29:37.538Z,58.34
2023-11-01T06:34:39.876Z,59.29
2023-11-01T06:39:41.991Z,59.45
2023-11-01T06:44:44.208Z,58.70
2023-11-01T06:49:46.442Z,59.12
2023-11-01T06:54:48.601Z,59.77
2023-11-01T06:59:50.805Z,60.17
2023-11-01T07:04:53.096Z,59.24
2023-11-01T07:09:55.389Z,58.36
2023-11-01T07:14:57.562Z,58.08
2023-11-01T07:19:59.694Z,58.59
2023-11-01T07:25:01.941Z,57.56
2023-11-01T07:30:04.476Z,56.59
2023-11-01T07:35:06.867Z,56.42
2023-11-01T07:40:09.964Z,56.51
2023-11-01T07:45:12.186Z,56.31
2023-11-01T07:50:14.690Z,55.08
2023-11-01T07:55:16.989Z,54.60
2023-11-01T08:00:19.342Z,54.86
2023-11-01T08:05:23.681Z,55.21
2023-11-01T08:10:25.823Z,54.77
2023-11-01T08:15:28.095Z,54.61
2023-11-01T08:20:33.681Z,54.50
2023-11-01T08:25:37.447Z,54.54
2023-11-01T08:30:40.552Z,54.71
2023-11-01T08:35:42.774Z,54.38
2023-11-01T08:40:45.033Z,54.40
2023-11-01T08:45:47.284Z,54.31
2023-11-01T08:50:49.521Z,54.52
2023-11-01T08:55:51.692Z,54.02
2023-11-01T09:00:53.819Z,53.53
2023-11-01T09:05:56.154Z,53.75
2023-11-01T09:10:59.169Z,53.87
2023-11-01T09:16:01.307Z,53.73
2023-11-01T09:21:03.536Z,53.47
2023-11-01T09:26:10.863Z,53.17
2023-11-01T09:31:12.958Z,53.23
2023-11-01T09:36:15.346Z,53.17
2023-11-01T09:41:23.588Z,52.96
2023-11-01T09:46:26.139Z,53.29
2023-11-01T09:51:28.655Z,53.26
2023-11-01T09:56:34.697Z,53.51
2023-11-01T10:01:38.621Z,53.12
2023-11-01T10:06:40.838Z,52.80
2023-11-01T10:11:47.147Z,52.89
2023-11-01T10:16:49.267Z,52.81
2023-11-01T10:21:56.194Z,53.37
2023-11-01T10:26:58.904Z,53.15
2023-11-01T10:32:01.155Z,52.80
2023-11-01T10:37:06.253Z,53.12
2023-11-01T10:42:11.284Z,52.98
2023-11-01T10:47:15.406Z,52.66
2023-11-01T10:52:20.132Z,52.13
2023-11-01T10:57:26.206Z,51.53
2023-11-01T11:02:40.826Z,52.09
2023-11-01T11:07:54.336Z,51.84
2023-11-01T11:13:11.807Z,51.34
2023-11-01T11:18:41.900Z,50.01
2023-11-01T11:23:45.744Z,48.41
2023-11-01T11:28:49.552Z,48.81
2023-11-01T11:33:53.680Z,48.61
2023-11-01T11:39:00.565Z,47.79
2023-11-01T11:44:16.239Z,48.14
2023-11-01T11:49:39.554Z,47.39
2023-11-01T11:54:41.680Z,47.27
2023-11-01T11:59:44.443Z,46.22
2023-11-01T12:04:46.988Z,45.50
2023-11-01T12:09:52.924Z,44.24
2023-11-01T12:15:02.577Z,44.45
2023-11-01T12:20:05.493Z,43.33
2023-11-01T12:25:09.948Z,43.52
2023-11-01T12:30:22.505Z,43.94
2023-11-01T12:35:24.710Z,44.62
2023-11-01T12:40:28.155Z,43.54
2023-11-01T12:45:34.170Z,42.11
2023-11-01T12:50:37.985Z,42.02
2023-11-01T12:55:40.528Z,42.03
2023-11-01T13:00:45.846Z,41.53
2023-11-01T13:05:48.171Z,41.55
2023-11-01T13:10:52.262Z,40.67
2023-11-01T13:15:54.466Z,40.80
2023-11-01T13:20:56.716Z,40.66
2023-11-01T13:25:58.848Z,41.28
2023-11-01T13:31:01.075Z,40.58
2023-11-01T13:36:03.322Z,40.37
2023-11-01T13:41:06.348Z,40.46
2023-11-01T13:46:11.135Z,39.90
2023-11-01T13:51:13.329Z,38.82
2023-11-01T13:56:15.567Z,39.27
2023-11-01T14:01:18.739Z,39.73
2023-11-01T14:06:24.799Z,39.57
2023-11-01T14:11:28.405Z,39.47
2023-11-01T14:16:31.067Z,39.29
2023-11-01T14:21:33.461Z,39.01
2023-11-01T14:26:35.768Z,38.85
2023-11-01T14:31:38.168Z,38.79
2023-11-01T14:36:41.100Z,38.42
2023-11-01T14:41:43.236Z,38.59
2023-11-01T14:46:45.451Z,39.33
2023-11-01T14:51:47.600Z,39.83
2023-11-01T14:56:50.124Z,40.31
2023-11-01T15:01:55.645Z,41.14
2023-11-01T15:06:59.126Z,42.35
2023-11-01T15:12:01.309Z,43.31
2023-11-01T15:17:03.549Z,44.14
2023-11-01T15:22:05.799Z,44.83
2023-11-01T15:27:08.068Z,45.46
2023-11-01T15:32:10.401Z,45.97
2023-11-01T15:37:13.638Z,46.11
2023-11-01T15:42:16.054Z,46.69
2023-11-01T15:47:18.596Z,47.10
2023-11-01T15:52:20.745Z,47.36
2023-11-01T15:57:25.085Z,47.88
2023-11-01T16:02:30.305Z,48.52
2023-11-01T16:07:33.844Z,49.26
2023-11-01T16:12:36.045Z,49.45
2023-11-01T16:17:38.372Z,49.85
2023-11-01T16:22:40.583Z,49.80
2023-11-01T16:27:45.333Z,50.08
2023-11-01T16:32:52.101Z,50.55
2023-11-01T16:37:56.596Z,50.52
2023-11-01T16:43:01.817Z,51.31
2023-11-01T16:48:04.279Z,51.24
2023-11-01T16:53:06.502Z,51.88
2023-11-01T16:58:08.759Z,52.04
2023-11-01T17:03:11.186Z,52.52
2023-11-01T17:08:13.811Z,52.46
2023-11-01T17:13:17.651Z,52.51
2023-11-01T17:18:20.069Z,53.06
2023-11-01T17:23:22.306Z,53.65
2023-11-01T17:28:35.797Z,53.45
2023-11-01T17:33:42.680Z,53.44
2023-11-01T17:38:44.965Z,53.92
2023-11-01T17:43:55.076Z,54.14
2023-11-01T17:48:59.379Z,54.31
2023-11-01T17:54:05.204Z,54.02
2023-11-01T17:59:07.465Z,54.05
2023-11-01T18:04:09.734Z,54.72
2023-11-01T18:09:18.514Z,55.06
2023-11-01T18:14:20.648Z,55.30
2023-11-01T18:19:23.020Z,55.57
2023-11-01T18:24:51.216Z,55.72
2023-11-01T18:29:53.441Z,55.93
2023-11-01T18:34:59.529Z,55.77
2023-11-01T18:40:01.663Z,55.80
2023-11-01T18:45:04.955Z,56.41
2023-11-01T18:50:14.322Z,56.48
2023-11-01T18:55:33.260Z,56.20
2023-11-01T19:00:36.669Z,56.10
2023-11-01T19:05:41.832Z,56.40
2023-11-01T19:10:44.501Z,56.40
2023-11-01T19:16:16.037Z,56.66
2023-11-01T19:21:21.305Z,56.13
2023-11-01T19:26:25.384Z,55.75
2023-11-01T19:31:29.577Z,55.99
2023-11-01T19:36:31.805Z,56.45
2023-11-01T19:41:35.052Z,56.49
2023-11-01T19:46:38.399Z,56.16
2023-11-01T19:51:40.944Z,56.72
2023-11-01T19:56:43.131Z,56.94
2023-11-01T20:01:45.485Z,57.36
2023-11-01T20:06:49.102Z,57.19
2023-11-01T20:11:52.409Z,57.07
2023-11-01T20:16:54.562Z,57.41
2023-11-01T20:21:56.757Z,57.93
2023-11-01T20:26:58.961Z,57.53
2023-11-01T20:32:01.161Z,56.95
2023-11-01T20:37:04.198Z,57.28
2023-11-01T20:42:06.671Z,57.85
2023-11-01T20:47:09.034Z,57.98
2023-11-01T20:52:11.302Z,57.76
2023-11-01T20:57:14.150Z,57.55
2023-11-01T21:02:16.362Z,57.82
2023-11-01T21:07:19.439Z,58.09
2023-11-01T21:12:22.794Z,57.94
2023-11-01T21:17:25.790Z,57.47
2023-11-01T21:22:34.438Z,57.34
2023-11-01T21:27:36.946Z,57.90
2023-11-01T21:32:39.157Z,57.75
2023-11-01T21:37:41.630Z,57.57
2023-11-01T21:42:43.810Z,57.10
2023-11-01T21:47:46.257Z,57.45
2023-11-01T21:52:48.399Z,57.90
2023-11-01T21:57:51.015Z,57.96
2023-11-01T22:02:53.232Z,57.70
2023-11-01T22:07:58.645Z,57.70
2023-11-01T22:13:02.144Z,58.22
2023-11-01T22:18:07.255Z,58.38
2023-11-01T22:23:09.473Z,58.71
2023-11-01T22:28:11.682Z,58.31
2023-11-01T22:33:17.323Z,58.40
2023-11-01T22:38:20.045Z,58.71
2023-11-01T22:43:22.194Z,58.97
2023-11-01T22:48:24.459Z,59.36
2023-11-01T22:53:27.686Z,59.25
2023-11-01T22:58:29.955Z,59.40
2023-11-01T23:03:32.290Z,59.81
2023-11-01T23:08:34.523Z,60.43
2023-11-01T23:13:36.663Z,60.46
2023-11-01T23:18:38.918Z,60.02
2023-11-01T23:23:41.162Z,60.15
2023-11-01T23:29:10.136Z,60.40
2023-11-01T23:34:57.296Z,60.61
2023-11-01T23:39:59.533Z,60.34
2023-11-01T23:45:06.697Z,60.68
2023-11-01T23:50:19.377Z,60.65
2023-11-01T23:55:21.621Z,60.87
